createdAt,value
2022-09-25T00:01:02.508Z,13.88
2022-09-25T00:03:30.364Z,13.10
2022-09-25T00:06:05.902Z,7.82
2022-09-25T00:08:33.692Z,10.32
2022-09-25T00:11:00.811Z,8.82
2022-09-25T00:13:27.805Z,15.32
2022-09-25T00:15:56.605Z,6.88
2022-09-25T00:18:43.241Z,12.98
2022-09-25T00:21:12.976Z,10.75
2022-09-25T00:23:41.711Z,8.98
2022-09-25T00:26:09.429Z,10.23
2022-09-25T00:28:38.133Z,7.55
2022-09-25T00:31:06.884Z,11.35
2022-09-25T00:33:35.218Z,8.77
2022-09-25T00:36:07.342Z,8.00
2022-09-25T00:38:36.121Z,9.00
2022-09-25T00:41:05.931Z,10.38
2022-09-25T00:43:42.174Z,7.60
2022-09-25T00:46:18.651Z,8.25
2022-09-25T00:49:01.090Z,10.35
2022-09-25T00:51:41.288Z,10.65
2022-09-25T00:54:20.198Z,11.35
2022-09-25T00:56:50.613Z,9.43
2022-09-25T00:59:22.760Z,10.33
2022-09-25T01:01:49.786Z,9.43
2022-09-25T01:04:18.130Z,13.27
2022-09-25T01:06:45.188Z,9.75
2022-09-25T01:09:12.192Z,9.77
2022-09-25T01:11:39.202Z,7.10
2022-09-25T01:14:07.866Z,8.57
2022-09-25T01:16:55.478Z,11.50
2022-09-25T01:20:29.855Z,7.22
2022-09-25T01:23:37.920Z,9.32
2022-09-25T01:26:47.585Z,12.45
2022-09-25T01:29:37.068Z,12.05
2022-09-25T01:32:14.170Z,7.88
2022-09-25T01:35:06.943Z,7.60
2022-09-25T01:37:50.704Z,9.30
2022-09-25T01:40:35.442Z,16.23
2022-09-25T01:43:10.682Z,17.73
2022-09-25T01:45:57.766Z,10.55
2022-09-25T01:48:28.333Z,13.65
2022-09-25T01:51:05.894Z,9.65
2022-09-25T01:53:45.850Z,10.63
2022-09-25T01:56:26.436Z,8.23
2022-09-25T01:58:59.444Z,7.28
2022-09-25T02:01:32.889Z,9.13
2022-09-25T02:04:08.299Z,15.80
2022-09-25T02:06:38.383Z,8.73
2022-09-25T02:09:12.279Z,7.28
2022-09-25T02:11:53.921Z,7.35
2022-09-25T02:14:26.609Z,11.10
2022-09-25T02:16:58.192Z,8.38
2022-09-25T02:19:45.012Z,9.05
2022-09-25T02:22:23.602Z,8.73
2022-09-25T02:24:59.094Z,8.65
2022-09-25T02:27:28.188Z,10.68
2022-09-25T02:29:58.558Z,11.85
2022-09-25T02:32:33.410Z,8.85
2022-09-25T02:35:01.118Z,10.10
2022-09-25T02:37:28.578Z,8.38
2022-09-25T02:39:59.371Z,14.30
2022-09-25T02:42:55.416Z,28.52
2022-09-25T02:45:43.094Z,12.90
2022-09-25T02:48:54.180Z,15.05
2022-09-25T02:51:57.388Z,9.30
2022-09-25T02:54:41.357Z,12.32
2022-09-25T02:57:24.416Z,11.52
2022-09-25T02:59:56.907Z,13.02
2022-09-25T03:02:27.638Z,9.32
2022-09-25T03:04:56.662Z,8.30
2022-09-25T03:07:24.225Z,12.80
2022-09-25T03:09:54.771Z,7.47
2022-09-25T03:12:21.983Z,7.00
2022-09-25T03:14:49.043Z,15.88
2022-09-25T03:17:17.804Z,10.07
2022-09-25T03:19:44.776Z,13.00
2022-09-25T03:22:12.321Z,12.70
2022-09-25T03:24:39.395Z,6.38
2022-09-25T03:27:06.364Z,12.93
2022-09-25T03:29:33.927Z,9.85
2022-09-25T03:32:01.150Z,13.05
2022-09-25T03:34:28.086Z,10.57
2022-09-25T03:36:55.025Z,10.82
2022-09-25T03:39:22.267Z,14.38
2022-09-25T03:41:49.269Z,11.60
2022-09-25T03:44:16.353Z,12.77
2022-09-25T03:46:43.479Z,12.93
2022-09-25T03:49:10.915Z,9.80
2022-09-25T03:51:39.147Z,10.35
2022-09-25T03:54:06.415Z,16.10
2022-09-25T03:56:33.662Z,11.25
2022-09-25T03:59:00.801Z,13.82
2022-09-25T04:01:28.645Z,9.57
2022-09-25T04:03:56.154Z,17.52
2022-09-25T04:06:25.903Z,12.75
2022-09-25T04:08:53.867Z,12.00
2022-09-25T04:11:24.095Z,11.00
2022-09-25T04:13:51.462Z,10.98
2022-09-25T04:16:19.570Z,11.20
2022-09-25T04:18:46.708Z,9.60
2022-09-25T04:21:14.415Z,17.42
2022-09-25T04:23:42.187Z,13.57
2022-09-25T04:26:10.007Z,16.33
2022-09-25T04:28:37.732Z,19.90
2022-09-25T04:31:05.380Z,11.23
2022-09-25T04:33:48.284Z,11.55
2022-09-25T04:36:17.013Z,17.70
2022-09-25T04:38:44.324Z,13.32
2022-09-25T04:41:11.804Z,10.55
2022-09-25T04:43:41.084Z,14.07
2022-09-25T04:46:12.405Z,15.48
2022-09-25T04:48:44.508Z,12.80
2022-09-25T04:51:11.525Z,14.88
2022-09-25T04:53:40.045Z,17.95
2022-09-25T04:56:13.904Z,16.65
2022-09-25T04:58:50.375Z,11.35
2022-09-25T05:01:20.335Z,13.10
2022-09-25T05:03:54.156Z,15.82
2022-09-25T05:06:22.648Z,15.63
2022-09-25T05:08:49.969Z,20.70
2022-09-25T05:11:16.973Z,14.40
2022-09-25T05:13:46.916Z,12.07
2022-09-25T05:16:14.116Z,12.25
2022-09-25T05:18:41.241Z,11.00
2022-09-25T05:21:08.152Z,12.85
2022-09-25T05:23:35.145Z,18.98
2022-09-25T05:26:02.853Z,14.55
2022-09-25T05:28:31.030Z,12.38
2022-09-25T05:31:05.750Z,12.30
2022-09-25T05:33:33.992Z,28.73
2022-09-25T05:36:07.834Z,17.55
2022-09-25T05:38:36.717Z,19.80
2022-09-25T05:41:05.148Z,19.88
2022-09-25T05:43:33.439Z,13.57
2022-09-25T05:46:00.887Z,13.07
2022-09-25T05:48:27.981Z,14.55
2022-09-25T05:50:56.726Z,25.85
2022-09-25T05:53:24.586Z,22.73
2022-09-25T05:56:00.126Z,16.42
2022-09-25T05:58:28.592Z,26.17
2022-09-25T06:00:55.976Z,18.00
2022-09-25T06:03:23.185Z,20.77
2022-09-25T06:05:50.217Z,28.33
2022-09-25T06:08:17.234Z,21.85
2022-09-25T06:10:44.206Z,17.55
2022-09-25T06:13:11.139Z,23.98
2022-09-25T06:15:41.646Z,20.60
2022-09-25T06:18:09.680Z,18.85
2022-09-25T06:20:36.780Z,18.40
2022-09-25T06:23:03.886Z,18.70
2022-09-25T06:25:36.634Z,24.80
2022-09-25T06:28:04.308Z,14.27
2022-09-25T06:30:36.015Z,18.67
2022-09-25T06:33:21.253Z,15.15
2022-09-25T06:35:48.977Z,12.10
2022-09-25T06:38:17.328Z,14.18
2022-09-25T06:40:45.477Z,23.80
2022-09-25T06:43:16.492Z,23.17
2022-09-25T06:45:44.084Z,16.23
2022-09-25T06:48:13.389Z,14.32
2022-09-25T06:50:43.120Z,16.10
2022-09-25T06:53:11.744Z,12.98
2022-09-25T06:55:39.270Z,18.70
2022-09-25T06:58:07.611Z,22.45
2022-09-25T07:00:34.679Z,13.27
2022-09-25T07:03:20.138Z,18.65
2022-09-25T07:05:48.555Z,19.58
2022-09-25T07:08:17.971Z,14.50
2022-09-25T07:10:53.627Z,22.27
2022-09-25T07:13:24.674Z,12.57
2022-09-25T07:16:02.781Z,18.90
2022-09-25T07:18:30.611Z,15.32
2022-09-25T07:21:09.224Z,18.40
2022-09-25T07:23:36.817Z,22.92
2022-09-25T07:26:12.359Z,24.45
2022-09-25T07:28:41.007Z,10.18
2022-09-25T07:31:17.066Z,9.48
2022-09-25T07:33:44.208Z,11.50
2022-09-25T07:36:12.275Z,10.63
2022-09-25T07:38:39.901Z,12.02
2022-09-25T07:41:10.338Z,11.77
2022-09-25T07:43:42.371Z,14.93
2022-09-25T07:46:09.953Z,10.73
2022-09-25T07:48:37.259Z,11.95
2022-09-25T07:51:10.412Z,9.10
2022-09-25T07:53:38.701Z,14.13
2022-09-25T07:56:07.157Z,12.23
2022-09-25T07:58:38.111Z,10.75
2022-09-25T08:01:08.579Z,11.82
2022-09-25T08:03:35.815Z,15.60
2022-09-25T08:06:05.789Z,17.58
2022-09-25T08:08:34.644Z,7.47
2022-09-25T08:11:23.634Z,13.40
2022-09-25T08:13:51.194Z,8.18
2022-09-25T08:16:20.240Z,11.82
2022-09-25T08:18:47.502Z,17.85
2022-09-25T08:21:18.054Z,12.32
2022-09-25T08:23:49.639Z,10.30
2022-09-25T08:26:17.463Z,11.27
2022-09-25T08:28:45.100Z,9.13
2022-09-25T08:31:14.817Z,10.00
2022-09-25T08:33:46.683Z,8.73
2022-09-25T08:36:13.744Z,10.45
2022-09-25T08:38:40.709Z,10.98
2022-09-25T08:41:46.296Z,10.07
2022-09-25T08:44:57.246Z,12.50
2022-09-25T08:47:50.185Z,10.43
2022-09-25T08:50:23.281Z,16.27
2022-09-25T08:52:54.202Z,12.23
2022-09-25T08:55:50.376Z,7.32
2022-09-25T08:58:25.160Z,19.40
2022-09-25T09:01:02.218Z,8.98
2022-09-25T09:03:31.582Z,11.55
2022-09-25T09:06:07.948Z,20.58
2022-09-25T09:08:37.986Z,10.20
2022-09-25T09:11:27.922Z,7.22
2022-09-25T09:14:06.030Z,11.30
2022-09-25T09:16:44.958Z,12.10
2022-09-25T09:19:12.986Z,11.07
2022-09-25T09:22:13.260Z,9.52
2022-09-25T09:25:00.306Z,7.22
2022-09-25T09:27:44.009Z,10.98
2022-09-25T09:30:19.571Z,6.55
2022-09-25T09:33:28.672Z,10.75
2022-09-25T09:36:28.502Z,10.35
2022-09-25T09:39:38.427Z,7.65
2022-09-25T09:42:35.560Z,10.90
2022-09-25T09:45:28.546Z,9.60
2022-09-25T09:48:15.668Z,12.55
2022-09-25T09:50:52.809Z,8.40
2022-09-25T09:53:40.591Z,10.48
2022-09-25T09:56:23.286Z,8.85
2022-09-25T09:58:56.341Z,8.73
2022-09-25T10:01:40.742Z,7.28
2022-09-25T10:04:23.920Z,10.57
2022-09-25T10:07:01.528Z,13.02
2022-09-25T10:09:28.865Z,10.73
2022-09-25T10:12:07.675Z,4.80
2022-09-25T10:14:40.322Z,13.23
2022-09-25T10:17:11.602Z,5.28
2022-09-25T10:19:49.222Z,13.52
2022-09-25T10:22:21.134Z,9.88
2022-09-25T10:24:58.730Z,11.95
2022-09-25T10:27:32.474Z,8.50
2022-09-25T10:30:14.821Z,4.70
2022-09-25T10:33:20.320Z,9.65
2022-09-25T10:35:48.814Z,6.15
2022-09-25T10:38:53.489Z,8.68
2022-09-25T10:41:26.244Z,6.60
2022-09-25T10:44:00.958Z,4.95
2022-09-25T10:46:56.284Z,10.73
2022-09-25T10:49:44.008Z,11.85
2022-09-25T10:52:14.161Z,8.55
2022-09-25T10:54:45.563Z,7.20
2022-09-25T10:57:23.426Z,8.23
2022-09-25T10:59:51.915Z,5.20
2022-09-25T11:02:44.130Z,8.25
2022-09-25T11:05:47.864Z,8.93
2022-09-25T11:08:16.504Z,10.18
2022-09-25T11:10:51.868Z,2.67
2022-09-25T11:13:42.973Z,2.97
2022-09-25T11:16:10.608Z,4.05
2022-09-25T11:19:04.822Z,6.15
2022-09-25T11:21:44.439Z,4.05
2022-09-25T11:24:45.042Z,6.50
2022-09-25T11:27:34.612Z,5.07
2022-09-25T11:30:09.205Z,3.65
2022-09-25T11:33:18.011Z,5.78
2022-09-25T11:36:09.935Z,5.07
2022-09-25T11:42:23.658Z,10.57
2022-09-25T11:45:08.893Z,9.63
2022-09-25T11:47:54.291Z,5.88
2022-09-25T11:50:28.148Z,6.18
2022-09-25T11:53:19.354Z,3.83
2022-09-25T11:56:15.308Z,3.60
2022-09-25T11:59:21.874Z,3.78
2022-09-25T12:01:58.371Z,12.85
2022-09-25T12:04:56.938Z,3.40
2022-09-25T12:08:27.062Z,2.78
2022-09-25T12:11:45.925Z,2.60
2022-09-25T12:14:47.458Z,3.08
2022-09-25T12:17:56.379Z,7.70
2022-09-25T12:20:41.409Z,4.13
2022-09-25T12:23:42.448Z,3.20
2022-09-25T12:26:41.577Z,3.05
2022-09-25T12:29:50.087Z,7.57
2022-09-25T12:36:03.583Z,2.80
2022-09-25T12:38:55.544Z,2.88
2022-09-25T12:41:33.331Z,4.80
2022-09-25T12:44:36.458Z,5.07
2022-09-25T12:47:46.541Z,4.72
2022-09-25T12:50:29.188Z,2.53
2022-09-25T12:53:25.219Z,2.72
2022-09-25T13:02:22.827Z,4.18
2022-09-25T13:05:12.409Z,5.40
2022-09-25T13:08:03.167Z,3.33
2022-09-25T13:10:58.724Z,3.88
2022-09-25T13:13:30.434Z,2.78
2022-09-25T13:15:59.839Z,6.68
2022-09-25T13:18:30.275Z,2.53
2022-09-25T13:23:51.183Z,3.23
2022-09-25T13:26:22.828Z,3.65
2022-09-25T13:28:56.101Z,4.70
2022-09-25T13:31:28.812Z,6.32
2022-09-25T13:34:14.939Z,6.30
2022-09-25T13:36:50.780Z,2.97
2022-09-25T13:40:04.598Z,7.05
2022-09-25T13:42:46.420Z,5.57
2022-09-25T13:45:34.736Z,3.03
2022-09-25T13:48:12.742Z,2.42
2022-09-25T13:50:45.431Z,4.47
2022-09-25T13:53:21.702Z,4.05
2022-09-25T13:56:13.835Z,4.95
2022-09-25T13:59:33.354Z,2.85
2022-09-25T14:02:31.810Z,6.50
2022-09-25T14:04:58.859Z,3.88
2022-09-25T14:07:29.008Z,5.65
2022-09-25T14:09:59.075Z,7.60
2022-09-25T14:12:53.257Z,6.18
2022-09-25T14:15:38.378Z,2.78
2022-09-25T14:18:09.766Z,3.30
2022-09-25T14:20:43.380Z,8.30
2022-09-25T14:23:47.880Z,5.97
2022-09-25T14:26:22.362Z,5.80
2022-09-25T14:28:50.976Z,4.68
2022-09-25T14:31:59.637Z,4.07
2022-09-25T14:34:45.922Z,2.65
2022-09-25T14:38:07.604Z,3.65
2022-09-25T14:40:54.649Z,4.07
2022-09-25T14:44:10.659Z,8.02
2022-09-25T14:46:37.746Z,6.32
2022-09-25T14:49:27.949Z,4.68
2022-09-25T14:51:59.258Z,6.13
2022-09-25T14:54:38.361Z,11.30
2022-09-25T14:57:07.944Z,3.65
2022-09-25T14:59:42.756Z,4.65
2022-09-25T15:02:37.036Z,3.25
2022-09-25T15:05:43.628Z,3.40
2022-09-25T15:08:23.395Z,3.88
2022-09-25T15:11:02.816Z,4.45
2022-09-25T15:13:33.816Z,3.97
2022-09-25T15:16:20.929Z,4.90
2022-09-25T15:18:54.353Z,5.28
2022-09-25T15:21:26.895Z,9.65
2022-09-25T15:23:56.165Z,8.00
2022-09-25T15:26:23.825Z,5.13
2022-09-25T15:28:51.940Z,6.18
2022-09-25T15:31:19.426Z,2.67
2022-09-25T15:34:02.347Z,2.70
2022-09-25T15:36:30.007Z,4.63
2022-09-25T15:39:03.276Z,3.83
2022-09-25T15:41:30.408Z,2.40
2022-09-25T15:44:23.124Z,3.78
2022-09-25T15:46:52.548Z,4.15
2022-09-25T15:49:26.054Z,3.85
2022-09-25T15:52:01.154Z,10.02
2022-09-25T15:54:39.570Z,10.93
2022-09-25T15:57:11.449Z,8.85
2022-09-25T16:00:03.783Z,8.02
2022-09-25T16:02:55.401Z,5.65
2022-09-25T16:05:30.173Z,7.25
2022-09-25T16:08:18.026Z,8.20
2022-09-25T16:10:49.887Z,13.02
2022-09-25T16:13:22.583Z,5.25
2022-09-25T16:15:52.299Z,3.53
2022-09-25T16:18:42.667Z,4.40
2022-09-25T16:21:31.938Z,5.60
2022-09-25T16:24:07.464Z,4.90
2022-09-25T16:26:43.131Z,2.97
2022-09-25T16:29:22.642Z,5.78
2022-09-25T16:31:54.117Z,2.95
2022-09-25T16:34:27.575Z,4.18
2022-09-25T16:36:58.356Z,3.92
2022-09-25T16:39:31.556Z,8.85
2022-09-25T16:42:00.328Z,8.98
2022-09-25T16:44:48.284Z,3.42
2022-09-25T16:47:28.504Z,4.55
2022-09-25T16:49:55.579Z,5.18
2022-09-25T16:52:24.149Z,3.88
2022-09-25T16:54:53.951Z,6.43
2022-09-25T16:57:27.803Z,4.03
2022-09-25T16:59:55.197Z,5.70
2022-09-25T17:02:37.295Z,5.35
2022-09-25T17:05:26.713Z,5.40
2022-09-25T17:07:56.096Z,4.50
2022-09-25T17:10:29.382Z,6.60
2022-09-25T17:12:59.488Z,3.97
2022-09-25T17:15:33.985Z,4.05
2022-09-25T17:18:02.098Z,4.95
2022-09-25T17:20:35.697Z,4.10
2022-09-25T17:23:02.732Z,8.95
2022-09-25T17:25:48.925Z,4.63
2022-09-25T17:28:16.082Z,9.38
2022-09-25T17:30:44.040Z,10.73
2022-09-25T17:33:19.172Z,7.55
2022-09-25T17:35:59.822Z,4.45
2022-09-25T17:38:27.374Z,7.93
2022-09-25T17:41:00.466Z,5.57
2022-09-25T17:43:30.252Z,7.68
2022-09-25T17:45:59.385Z,8.50
2022-09-25T17:48:28.787Z,11.70
2022-09-25T17:50:58.537Z,5.82
2022-09-25T17:53:29.304Z,10.65
2022-09-25T17:55:57.224Z,10.88
2022-09-25T17:58:25.601Z,8.20
2022-09-25T18:00:53.875Z,5.68
2022-09-25T18:03:21.665Z,15.95
2022-09-25T18:05:49.227Z,6.70
2022-09-25T18:08:16.358Z,8.25
2022-09-25T18:10:43.376Z,6.05
2022-09-25T18:13:15.140Z,4.78
2022-09-25T18:15:51.468Z,8.77
2022-09-25T18:18:18.465Z,10.10
2022-09-25T18:21:08.965Z,7.93
2022-09-25T18:23:38.766Z,3.40
2022-09-25T18:26:08.646Z,7.50
2022-09-25T18:28:35.936Z,7.43
2022-09-25T18:31:03.551Z,7.50
2022-09-25T18:33:30.548Z,10.77
2022-09-25T18:35:57.491Z,11.32
2022-09-25T18:38:24.446Z,10.45
2022-09-25T18:40:51.472Z,7.53
2022-09-25T18:43:18.447Z,16.35
2022-09-25T18:45:52.512Z,9.35
2022-09-25T18:48:19.543Z,8.13
2022-09-25T18:50:50.555Z,6.70
2022-09-25T18:55:44.876Z,10.05
2022-09-25T18:58:12.835Z,4.20
2022-09-25T19:00:40.174Z,6.75
2022-09-25T19:03:07.322Z,12.68
2022-09-25T19:05:34.452Z,4.63
2022-09-25T19:08:03.548Z,5.60
2022-09-25T19:10:31.569Z,5.82
2022-09-25T19:12:58.563Z,5.30
2022-09-25T19:15:25.494Z,4.82
2022-09-25T19:17:52.854Z,5.97
2022-09-25T19:20:19.786Z,3.63
2022-09-25T19:22:46.726Z,3.85
2022-09-25T19:25:13.686Z,6.07
2022-09-25T19:27:40.752Z,4.63
2022-09-25T19:30:08.514Z,4.18
2022-09-25T19:32:35.451Z,5.55
2022-09-25T19:35:02.392Z,6.63
2022-09-25T19:37:32.900Z,7.95
2022-09-25T19:40:18.699Z,11.63
2022-09-25T19:42:46.979Z,7.43
2022-09-25T19:45:14.240Z,7.88
2022-09-25T19:47:41.192Z,7.38
2022-09-25T19:50:09.012Z,8.70
2022-09-25T19:52:36.057Z,9.20
2022-09-25T19:55:03.434Z,19.30
2022-09-25T19:57:30.467Z,10.60
2022-09-25T19:59:57.387Z,10.73
2022-09-25T20:02:24.460Z,9.75
2022-09-25T20:04:51.456Z,5.55
2022-09-25T20:07:18.486Z,7.20
2022-09-25T20:09:45.443Z,6.28
2022-09-25T20:12:12.438Z,11.25
2022-09-25T20:14:39.347Z,14.85
2022-09-25T20:17:10.018Z,9.25
2022-09-25T20:19:37.869Z,11.45
2022-09-25T20:22:04.796Z,8.07
2022-09-25T20:24:31.994Z,9.27
2022-09-25T20:26:58.989Z,12.02
2022-09-25T20:29:26.012Z,10.23
2022-09-25T20:31:52.958Z,7.43
2022-09-25T20:34:21.941Z,6.53
2022-09-25T20:36:49.473Z,5.30
2022-09-25T20:39:20.927Z,6.45
2022-09-25T20:41:49.961Z,10.13
2022-09-25T20:44:17.346Z,6.13
2022-09-25T20:46:44.446Z,4.82
2022-09-25T20:49:11.567Z,8.35
2022-09-25T20:51:38.524Z,5.85
2022-09-25T20:54:07.509Z,4.57
2022-09-25T20:56:36.388Z,8.75
2022-09-25T20:59:04.723Z,7.05
2022-09-25T21:01:36.983Z,6.07
2022-09-25T21:04:08.377Z,6.82
2022-09-25T21:06:37.647Z,10.00
2022-09-25T21:09:08.064Z,7.47
2022-09-25T21:11:35.215Z,5.70
2022-09-25T21:14:03.183Z,11.07
2022-09-25T21:16:31.839Z,8.00
2022-09-25T21:19:02.248Z,9.85
2022-09-25T21:21:29.998Z,5.63
2022-09-25T21:23:58.205Z,11.68
2022-09-25T21:26:27.746Z,7.47
2022-09-25T21:28:57.180Z,6.68
2022-09-25T21:31:31.650Z,6.45
2022-09-25T21:33:59.887Z,5.50
2022-09-25T21:36:27.907Z,12.85
2022-09-25T21:38:55.358Z,7.35
2022-09-25T21:41:24.755Z,11.55
2022-09-25T21:43:56.574Z,7.80
2022-09-25T21:46:25.036Z,7.78
2022-09-25T21:49:03.335Z,9.10
2022-09-25T21:51:36.542Z,5.03
2022-09-25T21:54:04.220Z,4.95
2022-09-25T21:56:32.150Z,4.80
2022-09-25T21:59:08.223Z,7.78
2022-09-25T22:01:37.547Z,5.55
2022-09-25T22:04:05.613Z,8.63
2022-09-25T22:06:38.977Z,7.57
2022-09-25T22:09:24.384Z,6.78
2022-09-25T22:11:51.754Z,7.00
2022-09-25T22:14:20.759Z,4.85
2022-09-25T22:16:50.315Z,6.60
2022-09-25T22:19:22.881Z,6.32
2022-09-25T22:21:51.851Z,5.20
2022-09-25T22:24:19.043Z,5.90
2022-09-25T22:26:47.825Z,8.70
2022-09-25T22:29:16.724Z,6.50
2022-09-25T22:31:44.512Z,11.40
2022-09-25T22:34:26.066Z,8.88
2022-09-25T22:36:58.934Z,5.65
2022-09-25T22:39:27.689Z,5.50
2022-09-25T22:41:55.114Z,7.80
2022-09-25T22:44:22.730Z,5.70
2022-09-25T22:46:49.911Z,8.65
2022-09-25T22:49:16.996Z,5.63
2022-09-25T22:51:44.002Z,7.30
2022-09-25T22:54:13.259Z,6.38
2022-09-25T22:56:40.410Z,7.00
2022-09-25T22:59:12.049Z,8.75
2022-09-25T23:01:44.406Z,7.82
2022-09-25T23:04:14.885Z,6.07
